createdAt,value
2022-10-22T00:00:32.606Z,81.20
2022-10-22T00:02:59.518Z,80.19
2022-10-22T00:05:26.631Z,80.68
2022-10-22T00:07:53.599Z,81.67
2022-10-22T00:10:20.657Z,82.41
2022-10-22T00:12:47.573Z,83.53
2022-10-22T00:15:14.655Z,82.99
2022-10-22T00:17:41.878Z,83.81
2022-10-22T00:20:09.555Z,84.43
2022-10-22T00:22:36.477Z,85.26
2022-10-22T00:25:03.687Z,84.15
2022-10-22T00:27:31.052Z,85.02
2022-10-22T00:29:58.206Z,85.01
2022-10-22T00:32:25.160Z,84.46
2022-10-22T00:34:52.265Z,84.98
2022-10-22T00:37:19.285Z,84.88
2022-10-22T00:39:46.243Z,85.61
2022-10-22T00:42:23.752Z,86.14
2022-10-22T00:45:11.596Z,86.87
2022-10-22T00:47:46.887Z,86.81
2022-10-22T00:50:25.151Z,87.70
2022-10-22T00:52:52.451Z,86.39
2022-10-22T00:55:20.750Z,87.08
2022-10-22T00:57:48.130Z,85.77
2022-10-22T01:00:16.453Z,87.14
2022-10-22T01:02:43.848Z,86.06
2022-10-22T01:05:11.428Z,87.57
2022-10-22T01:07:43.276Z,88.56
2022-10-22T01:10:24.661Z,87.76
2022-10-22T01:13:03.931Z,88.58
2022-10-22T01:15:30.835Z,88.46
2022-10-22T01:18:10.392Z,88.32
2022-10-22T01:20:46.380Z,90.12
2022-10-22T01:23:50.471Z,90.12
2022-10-22T01:26:44.029Z,91.32
2022-10-22T01:29:16.079Z,91.46
2022-10-22T01:32:07.839Z,90.33
2022-10-22T01:34:36.750Z,90.50
2022-10-22T01:37:04.048Z,90.82
2022-10-22T01:39:31.648Z,90.83
2022-10-22T01:41:58.877Z,90.64
2022-10-22T01:47:42.831Z,92.99
2022-10-22T01:50:25.061Z,94.26
2022-10-22T01:53:16.117Z,94.52
2022-10-22T01:55:54.668Z,92.92
2022-10-22T01:58:35.581Z,93.50
2022-10-22T02:01:11.406Z,93.16
2022-10-22T02:03:51.597Z,91.84
2022-10-22T02:06:22.637Z,92.92
2022-10-22T02:08:51.254Z,93.01
2022-10-22T02:11:18.327Z,93.46
2022-10-22T02:13:49.201Z,94.53
2022-10-22T02:16:21.652Z,94.96
2022-10-22T02:18:54.040Z,94.70
2022-10-22T02:21:21.031Z,93.77
2022-10-22T02:23:48.449Z,94.09
2022-10-22T02:26:35.886Z,92.58
2022-10-22T02:29:06.988Z,91.24
2022-10-22T02:31:39.060Z,92.27
2022-10-22T02:34:11.303Z,93.22
2022-10-22T02:36:40.512Z,94.50
2022-10-22T02:39:10.029Z,94.89
2022-10-22T02:41:38.153Z,96.26
2022-10-22T02:44:10.244Z,95.69
2022-10-22T02:46:39.096Z,95.26
2022-10-22T02:49:06.063Z,91.99
2022-10-22T02:51:33.090Z,93.01
2022-10-22T02:54:00.101Z,93.59
2022-10-22T02:56:27.033Z,93.34
2022-10-22T02:58:53.889Z,93.18
2022-10-22T03:01:21.046Z,93.69
2022-10-22T03:03:48.080Z,92.80
2022-10-22T03:06:15.166Z,91.60
2022-10-22T03:08:42.417Z,90.89
2022-10-22T03:11:09.529Z,90.27
2022-10-22T03:13:36.791Z,90.36
2022-10-22T03:16:04.006Z,90.56
2022-10-22T03:18:31.086Z,90.44
2022-10-22T03:21:15.747Z,90.21
2022-10-22T03:23:43.845Z,90.76
2022-10-22T03:26:13.328Z,90.91
2022-10-22T03:28:41.436Z,91.13
2022-10-22T03:31:09.526Z,90.85
2022-10-22T03:33:37.892Z,89.83
2022-10-22T03:36:07.031Z,89.92
2022-10-22T03:38:36.963Z,89.96
2022-10-22T03:41:04.377Z,90.64
2022-10-22T03:43:31.349Z,89.01
2022-10-22T03:45:58.278Z,88.30
2022-10-22T03:48:25.223Z,87.38
2022-10-22T03:50:52.331Z,87.52
2022-10-22T03:53:19.266Z,87.77
2022-10-22T03:55:46.893Z,88.50
2022-10-22T03:58:13.888Z,89.21
2022-10-22T04:00:40.936Z,90.67
2022-10-22T04:03:07.881Z,91.23
2022-10-22T04:05:34.862Z,91.79
2022-10-22T04:08:01.776Z,92.98
2022-10-22T04:10:28.807Z,92.41
2022-10-22T04:12:55.997Z,92.83
2022-10-22T04:15:22.943Z,92.81
2022-10-22T04:17:49.897Z,93.02
2022-10-22T04:20:16.997Z,92.54
2022-10-22T04:22:43.961Z,90.43
2022-10-22T04:25:10.935Z,90.30
2022-10-22T04:27:38.154Z,88.78
2022-10-22T04:30:06.861Z,86.68
2022-10-22T04:32:33.793Z,86.07
2022-10-22T04:35:00.815Z,86.51
2022-10-22T04:37:27.715Z,84.96
2022-10-22T04:39:57.301Z,85.83
2022-10-22T04:42:25.310Z,85.37
2022-10-22T04:44:52.258Z,83.57
2022-10-22T04:47:19.231Z,82.50
2022-10-22T04:49:46.169Z,82.24
2022-10-22T04:52:13.073Z,82.35
2022-10-22T04:54:40.089Z,82.30
2022-10-22T04:57:07.077Z,82.72
2022-10-22T04:59:34.038Z,84.36
2022-10-22T05:02:00.957Z,85.29
2022-10-22T05:04:28.013Z,85.19
2022-10-22T05:06:54.996Z,85.14
2022-10-22T05:09:22.080Z,86.64
2022-10-22T05:11:52.030Z,86.69
2022-10-22T05:14:22.540Z,85.83
2022-10-22T05:16:50.146Z,87.17
2022-10-22T05:19:29.628Z,86.76
2022-10-22T05:21:59.352Z,85.84
2022-10-22T05:24:27.507Z,82.80
2022-10-22T05:26:56.169Z,81.41
2022-10-22T05:29:23.869Z,80.92
2022-10-22T05:31:50.980Z,79.92
2022-10-22T05:34:18.229Z,81.60
2022-10-22T05:36:45.846Z,80.07
2022-10-22T05:39:12.959Z,82.27
2022-10-22T05:41:40.065Z,82.24
2022-10-22T05:44:07.059Z,83.42
2022-10-22T05:46:35.454Z,87.00
2022-10-22T05:49:05.789Z,91.43
2022-10-22T05:51:35.692Z,92.72
2022-10-22T05:54:03.750Z,90.11
2022-10-22T05:56:37.058Z,92.35
2022-10-22T05:59:04.878Z,94.31
2022-10-22T06:01:35.456Z,95.15
2022-10-22T06:04:05.687Z,98.98
2022-10-22T06:06:35.470Z,98.95
2022-10-22T06:09:13.682Z,98.89
2022-10-22T06:11:40.859Z,100.00
2022-10-22T06:14:07.894Z,100.00
2022-10-22T06:16:34.979Z,100.00
2022-10-22T06:19:03.226Z,98.98
2022-10-22T06:21:31.840Z,98.45
2022-10-22T06:24:02.761Z,96.56
2022-10-22T06:26:30.710Z,96.66
2022-10-22T06:28:58.694Z,96.70
2022-10-22T06:31:26.856Z,96.97
2022-10-22T06:33:54.281Z,97.14
2022-10-22T06:36:23.313Z,97.23
2022-10-22T06:38:54.879Z,96.93
2022-10-22T06:41:25.775Z,96.05
2022-10-22T06:43:57.652Z,95.84
2022-10-22T06:46:26.361Z,94.98
2022-10-22T06:48:59.411Z,95.54
2022-10-22T06:51:27.131Z,95.16
2022-10-22T06:53:55.805Z,93.88
2022-10-22T06:56:25.133Z,95.05
2022-10-22T06:58:54.185Z,94.13
2022-10-22T07:01:27.273Z,92.65
2022-10-22T07:03:54.640Z,93.33
2022-10-22T07:06:22.942Z,91.87
2022-10-22T07:08:50.111Z,90.49
2022-10-22T07:11:25.509Z,90.38
2022-10-22T07:13:55.600Z,89.81
2022-10-22T07:16:22.741Z,88.58
2022-10-22T07:18:50.214Z,86.99
2022-10-22T07:21:20.453Z,86.79
2022-10-22T07:23:47.798Z,84.69
2022-10-22T07:26:16.815Z,82.57
2022-10-22T07:28:44.075Z,84.04
2022-10-22T07:31:12.783Z,81.95
2022-10-22T07:33:40.205Z,81.42
2022-10-22T07:36:09.428Z,81.25
2022-10-22T07:38:37.339Z,79.75
2022-10-22T07:41:04.745Z,78.10
2022-10-22T07:43:31.758Z,78.11
2022-10-22T07:45:59.923Z,76.08
2022-10-22T07:48:26.936Z,76.54
2022-10-22T07:50:53.990Z,74.56
2022-10-22T07:53:24.285Z,75.38
2022-10-22T07:55:52.151Z,74.22
2022-10-22T07:58:20.792Z,75.04
2022-10-22T08:00:49.771Z,73.32
2022-10-22T08:03:17.809Z,75.24
2022-10-22T08:05:45.126Z,72.88
2022-10-22T08:08:14.592Z,74.19
2022-10-22T08:10:42.468Z,72.48
2022-10-22T08:13:09.655Z,71.47
2022-10-22T08:15:36.860Z,71.87
2022-10-22T08:18:04.457Z,73.18
2022-10-22T08:20:31.787Z,72.34
2022-10-22T08:22:59.558Z,74.03
2022-10-22T08:25:27.290Z,71.54
2022-10-22T08:27:54.245Z,71.69
2022-10-22T08:30:21.225Z,70.50
2022-10-22T08:32:50.424Z,70.04
2022-10-22T08:35:20.178Z,71.98
2022-10-22T08:37:47.054Z,72.94
2022-10-22T08:40:26.043Z,72.73
2022-10-22T08:43:18.900Z,73.71
2022-10-22T08:46:16.839Z,69.96
2022-10-22T08:48:50.766Z,70.46
2022-10-22T08:51:21.574Z,71.19
2022-10-22T08:54:01.346Z,71.28
2022-10-22T08:56:30.112Z,71.48
2022-10-22T08:59:14.000Z,69.06
2022-10-22T09:01:47.447Z,69.52
2022-10-22T09:04:52.358Z,71.44
2022-10-22T09:07:19.398Z,70.92
2022-10-22T09:09:51.840Z,68.91
2022-10-22T09:12:21.951Z,69.66
2022-10-22T09:14:49.406Z,68.77
2022-10-22T09:17:16.300Z,68.43
2022-10-22T09:20:01.509Z,70.69
2022-10-22T09:23:00.794Z,70.96
2022-10-22T09:25:31.046Z,69.57
2022-10-22T09:28:00.776Z,70.72
2022-10-22T09:30:31.139Z,71.13
2022-10-22T09:33:07.153Z,68.86
2022-10-22T09:35:44.015Z,70.53
2022-10-22T09:38:14.350Z,70.82
2022-10-22T09:40:48.068Z,69.56
2022-10-22T09:43:15.617Z,68.87
2022-10-22T09:45:44.557Z,68.21
2022-10-22T09:48:20.561Z,67.21
2022-10-22T09:50:49.965Z,67.13
2022-10-22T09:53:28.891Z,67.58
2022-10-22T09:56:01.174Z,66.59
2022-10-22T09:58:28.510Z,66.92
2022-10-22T10:01:00.198Z,67.58
2022-10-22T10:03:31.090Z,67.37
2022-10-22T10:06:04.703Z,68.08
2022-10-22T10:08:33.492Z,68.01
2022-10-22T10:11:06.769Z,68.53
2022-10-22T10:13:38.893Z,67.96
2022-10-22T10:16:27.535Z,68.18
2022-10-22T10:18:54.584Z,68.46
2022-10-22T10:21:36.294Z,68.63
2022-10-22T10:24:03.405Z,69.46
2022-10-22T10:26:56.604Z,68.91
2022-10-22T10:29:38.876Z,68.40
2022-10-22T10:32:48.378Z,68.48
2022-10-22T10:35:47.709Z,69.42
2022-10-22T10:38:17.580Z,69.21
2022-10-22T10:40:53.727Z,68.03
2022-10-22T10:43:25.751Z,70.45
2022-10-22T10:46:01.854Z,71.51
2022-10-22T10:48:41.000Z,70.56
2022-10-22T10:51:40.902Z,68.27
2022-10-22T10:54:27.574Z,68.49
2022-10-22T10:57:03.186Z,68.71
2022-10-22T10:59:51.732Z,69.55
2022-10-22T11:02:21.167Z,65.95
2022-10-22T11:04:57.131Z,67.88
2022-10-22T11:07:37.255Z,67.23
2022-10-22T11:10:24.491Z,68.53
2022-10-22T11:12:57.655Z,66.81
2022-10-22T11:15:27.240Z,67.71
2022-10-22T11:17:56.802Z,67.99
2022-10-22T11:20:31.617Z,69.08
2022-10-22T11:23:19.859Z,68.00
2022-10-22T11:25:49.361Z,68.31
2022-10-22T11:28:28.568Z,69.33
2022-10-22T11:31:01.716Z,68.89
2022-10-22T11:33:37.007Z,71.14
2022-10-22T11:36:06.522Z,70.37
2022-10-22T11:38:35.852Z,69.10
2022-10-22T11:41:13.513Z,65.89
2022-10-22T11:44:19.699Z,65.11
2022-10-22T11:46:54.190Z,65.00
2022-10-22T11:49:42.034Z,62.53
2022-10-22T11:52:40.556Z,62.16
2022-10-22T11:55:35.016Z,64.64
2022-10-22T11:58:22.946Z,65.61
2022-10-22T12:00:50.038Z,66.56
2022-10-22T12:03:19.887Z,65.87
2022-10-22T12:05:46.872Z,65.14
2022-10-22T12:08:33.448Z,65.02
2022-10-22T12:11:13.725Z,65.74
2022-10-22T12:13:58.908Z,68.22
2022-10-22T12:16:37.944Z,67.42
2022-10-22T12:19:34.127Z,68.31
2022-10-22T12:22:23.526Z,69.74
2022-10-22T12:24:54.145Z,69.71
2022-10-22T12:27:27.511Z,70.66
2022-10-22T12:29:59.820Z,70.83
2022-10-22T12:32:37.140Z,70.82
2022-10-22T12:35:19.327Z,71.74
2022-10-22T12:37:54.535Z,71.91
2022-10-22T12:40:25.810Z,71.11
2022-10-22T12:42:59.149Z,70.80
2022-10-22T12:45:28.580Z,69.53
2022-10-22T12:48:05.042Z,69.74
2022-10-22T12:50:37.650Z,69.35
2022-10-22T12:53:20.031Z,71.78
2022-10-22T12:55:50.196Z,71.61
2022-10-22T12:58:22.578Z,72.60
2022-10-22T13:00:57.617Z,72.16
2022-10-22T13:03:29.211Z,73.15
2022-10-22T13:05:56.418Z,72.52
2022-10-22T13:08:27.462Z,73.68
2022-10-22T13:10:55.197Z,72.44
2022-10-22T13:13:34.501Z,71.91
2022-10-22T13:16:21.946Z,73.04
2022-10-22T13:18:49.126Z,73.51
2022-10-22T13:21:38.219Z,75.55
2022-10-22T13:24:23.592Z,74.87
2022-10-22T13:26:54.445Z,74.54
2022-10-22T13:29:23.620Z,76.27
2022-10-22T13:31:52.790Z,75.87
2022-10-22T13:34:22.017Z,76.03
2022-10-22T13:36:50.510Z,76.56
2022-10-22T13:39:22.820Z,75.87
2022-10-22T13:41:51.112Z,76.81
2022-10-22T13:44:18.960Z,77.34
2022-10-22T13:46:48.086Z,77.32
2022-10-22T13:49:22.591Z,78.29
2022-10-22T13:51:51.036Z,79.06
2022-10-22T13:54:24.373Z,79.19
2022-10-22T13:56:51.373Z,79.62
2022-10-22T13:59:21.304Z,80.67
2022-10-22T14:01:51.159Z,80.89
2022-10-22T14:04:18.233Z,80.78
2022-10-22T14:06:45.254Z,82.71
2022-10-22T14:09:15.469Z,82.25
2022-10-22T14:11:43.236Z,83.28
2022-10-22T14:14:14.342Z,82.83
2022-10-22T14:16:41.824Z,83.41
2022-10-22T14:19:14.591Z,90.66
2022-10-22T14:21:41.710Z,100.00
2022-10-22T14:24:12.980Z,100.00
2022-10-22T14:26:40.995Z,100.00
2022-10-22T14:29:10.188Z,100.00
2022-10-22T14:31:43.837Z,100.00
2022-10-22T14:34:13.412Z,100.00
2022-10-22T14:36:40.561Z,100.00
2022-10-22T14:39:08.598Z,100.00
2022-10-22T14:41:36.972Z,100.00
2022-10-22T14:44:04.083Z,100.00
2022-10-22T14:46:31.128Z,100.00
2022-10-22T14:48:58.567Z,100.00
2022-10-22T14:51:25.654Z,100.00
2022-10-22T14:53:52.671Z,100.00
2022-10-22T14:56:22.653Z,100.00
2022-10-22T14:58:50.200Z,100.00
2022-10-22T15:01:17.606Z,100.00
2022-10-22T15:03:44.976Z,100.00
2022-10-22T15:06:12.137Z,100.00
2022-10-22T15:08:39.719Z,100.00
2022-10-22T15:11:10.522Z,100.00
2022-10-22T15:13:37.677Z,100.00
2022-10-22T15:16:09.716Z,100.00
2022-10-22T15:18:37.001Z,100.00
2022-10-22T15:21:13.987Z,100.00
2022-10-22T15:23:41.031Z,100.00
2022-10-22T15:26:08.857Z,100.00
2022-10-22T15:28:37.190Z,100.00
2022-10-22T15:31:05.014Z,100.00
2022-10-22T15:33:34.588Z,100.00
2022-10-22T15:36:11.644Z,100.00
2022-10-22T15:38:38.883Z,100.00
2022-10-22T15:41:07.444Z,100.00
2022-10-22T15:43:35.075Z,100.00
2022-10-22T15:46:34.716Z,100.00
2022-10-22T15:49:02.657Z,100.00
2022-10-22T15:51:29.631Z,100.00
2022-10-22T15:53:58.671Z,100.00
2022-10-22T15:56:28.051Z,100.00
2022-10-22T15:59:00.379Z,100.00
2022-10-22T16:01:27.796Z,100.00
2022-10-22T16:04:00.386Z,100.00
2022-10-22T16:06:40.473Z,100.00
2022-10-22T16:09:10.785Z,100.00
2022-10-22T16:11:38.996Z,100.00
2022-10-22T16:14:07.583Z,100.00
2022-10-22T16:16:36.652Z,100.00
2022-10-22T16:19:03.705Z,100.00
2022-10-22T16:21:30.781Z,100.00
2022-10-22T16:24:00.157Z,100.00
2022-10-22T16:26:29.381Z,100.00
2022-10-22T16:28:58.431Z,100.00
2022-10-22T16:31:25.465Z,100.00
2022-10-22T16:33:52.647Z,100.00
2022-10-22T16:36:21.201Z,100.00
2022-10-22T16:38:48.991Z,100.00
2022-10-22T16:41:20.711Z,100.00
2022-10-22T16:43:49.875Z,100.00
2022-10-22T16:46:21.440Z,100.00
2022-10-22T16:48:50.791Z,100.00
2022-10-22T16:51:21.596Z,100.00
2022-10-22T16:53:49.193Z,100.00
2022-10-22T16:56:16.819Z,100.00
2022-10-22T16:58:54.557Z,100.00
2022-10-22T17:01:24.383Z,100.00
2022-10-22T17:03:53.680Z,100.00
2022-10-22T17:06:22.414Z,100.00
2022-10-22T17:08:49.473Z,100.00
2022-10-22T17:11:19.490Z,100.00
2022-10-22T17:13:49.102Z,100.00
2022-10-22T17:16:18.884Z,100.00
2022-10-22T17:21:34.315Z,100.00
2022-10-22T17:24:01.238Z,100.00
2022-10-22T17:26:28.729Z,100.00
2022-10-22T17:28:55.749Z,100.00
2022-10-22T17:31:31.882Z,100.00
2022-10-22T17:34:00.174Z,100.00
2022-10-22T17:36:33.215Z,100.00
2022-10-22T17:39:06.382Z,100.00
2022-10-22T17:41:36.295Z,100.00
2022-10-22T17:44:04.839Z,100.00
2022-10-22T17:46:32.653Z,100.00
2022-10-22T17:49:02.466Z,100.00
2022-10-22T17:51:30.542Z,100.00
2022-10-22T17:53:57.973Z,100.00
2022-10-22T17:56:27.521Z,100.00
2022-10-22T17:58:55.562Z,100.00
2022-10-22T18:01:25.494Z,100.00
2022-10-22T18:03:54.283Z,100.00
2022-10-22T18:06:22.179Z,100.00
2022-10-22T18:08:49.314Z,100.00
2022-10-22T18:11:19.058Z,100.00
2022-10-22T18:13:50.296Z,100.00
2022-10-22T18:16:17.991Z,100.00
2022-10-22T18:18:50.158Z,100.00
2022-10-22T18:21:18.006Z,100.00
2022-10-22T18:23:45.786Z,100.00
2022-10-22T18:26:13.590Z,100.00
2022-10-22T18:28:40.867Z,100.00
2022-10-22T18:31:10.185Z,100.00
2022-10-22T18:33:37.518Z,100.00
2022-10-22T18:36:19.161Z,100.00
2022-10-22T18:39:00.637Z,100.00
2022-10-22T18:41:29.836Z,100.00
2022-10-22T18:44:02.592Z,100.00
2022-10-22T18:46:31.111Z,100.00
2022-10-22T18:48:59.098Z,100.00
2022-10-22T18:51:30.316Z,100.00
2022-10-22T18:54:05.441Z,100.00
2022-10-22T18:56:40.843Z,100.00
2022-10-22T18:59:15.476Z,100.00
2022-10-22T19:01:42.442Z,100.00
2022-10-22T19:04:09.414Z,100.00
2022-10-22T19:06:37.107Z,100.00
2022-10-22T19:09:05.371Z,100.00
2022-10-22T19:11:32.851Z,100.00
2022-10-22T19:13:59.832Z,100.00
2022-10-22T19:16:28.702Z,100.00
2022-10-22T19:19:02.187Z,100.00
2022-10-22T19:21:29.711Z,100.00
2022-10-22T19:23:58.353Z,100.00
2022-10-22T19:26:26.707Z,100.00
2022-10-22T19:28:54.933Z,100.00
2022-10-22T19:31:25.601Z,100.00
2022-10-22T19:33:55.465Z,100.00
2022-10-22T19:36:28.073Z,100.00
2022-10-22T19:38:55.603Z,100.00
2022-10-22T19:41:24.729Z,100.00
2022-10-22T19:43:53.487Z,100.00
2022-10-22T19:46:22.076Z,100.00
2022-10-22T19:48:49.937Z,100.00
2022-10-22T19:51:22.181Z,100.00
2022-10-22T19:53:49.792Z,100.00
2022-10-22T19:56:19.819Z,100.00
2022-10-22T19:58:47.327Z,100.00
2022-10-22T20:01:17.662Z,100.00
2022-10-22T20:03:45.455Z,100.00
2022-10-22T20:06:15.272Z,100.00
2022-10-22T20:08:42.236Z,100.00
2022-10-22T20:11:16.685Z,100.00
2022-10-22T20:13:46.629Z,100.00
2022-10-22T20:16:19.541Z,100.00
2022-10-22T20:18:46.599Z,100.00
2022-10-22T20:21:15.289Z,100.00
2022-10-22T20:23:43.318Z,100.00
2022-10-22T20:26:10.579Z,100.00
2022-10-22T20:28:38.603Z,100.00
2022-10-22T20:31:14.897Z,100.00
2022-10-22T20:33:42.045Z,100.00
2022-10-22T20:36:19.766Z,100.00
2022-10-22T20:38:48.431Z,100.00
2022-10-22T20:41:18.809Z,100.00
2022-10-22T20:43:46.757Z,100.00
2022-10-22T20:46:18.335Z,100.00
2022-10-22T20:48:46.102Z,100.00
2022-10-22T20:51:13.208Z,100.00
2022-10-22T20:53:40.299Z,100.00
2022-10-22T20:56:08.609Z,100.00
2022-10-22T20:58:35.969Z,100.00
2022-10-22T21:01:10.074Z,100.00
2022-10-22T21:03:37.972Z,100.00
2022-10-22T21:06:05.984Z,100.00
2022-10-22T21:08:35.514Z,100.00
2022-10-22T21:11:06.147Z,100.00
2022-10-22T21:13:33.579Z,100.00
2022-10-22T21:16:10.726Z,100.00
2022-10-22T21:18:38.113Z,100.00
2022-10-22T21:21:06.187Z,100.00
2022-10-22T21:23:34.703Z,100.00
2022-10-22T21:26:01.831Z,100.00
2022-10-22T21:30:57.088Z,100.00
2022-10-22T21:33:24.168Z,100.00
2022-10-22T21:35:55.632Z,100.00
2022-10-22T21:38:23.995Z,100.00
2022-10-22T21:40:51.348Z,100.00
2022-10-22T21:43:18.523Z,100.00
2022-10-22T21:45:45.514Z,100.00
2022-10-22T21:48:14.435Z,100.00
2022-10-22T21:50:42.856Z,100.00
2022-10-22T21:53:12.086Z,100.00
2022-10-22T21:55:42.358Z,100.00
2022-10-22T21:58:09.445Z,100.00
2022-10-22T22:00:36.959Z,100.00
2022-10-22T22:03:06.458Z,100.00
2022-10-22T22:05:33.440Z,100.00
2022-10-22T22:08:00.420Z,100.00
2022-10-22T22:10:27.427Z,100.00
2022-10-22T22:12:54.342Z,100.00
2022-10-22T22:15:21.361Z,100.00
2022-10-22T22:17:48.351Z,100.00
2022-10-22T22:20:15.505Z,100.00
2022-10-22T22:22:42.856Z,100.00
2022-10-22T22:25:10.161Z,100.00
2022-10-22T22:27:37.207Z,100.00
2022-10-22T22:30:05.060Z,100.00
2022-10-22T22:32:31.975Z,100.00
2022-10-22T22:34:58.911Z,100.00
2022-10-22T22:37:27.512Z,100.00
2022-10-22T22:39:54.750Z,100.00
2022-10-22T22:42:21.765Z,100.00
2022-10-22T22:44:48.818Z,100.00
2022-10-22T22:47:15.877Z,100.00
2022-10-22T22:49:42.986Z,100.00
2022-10-22T22:52:10.106Z,100.00
2022-10-22T22:54:37.181Z,100.00
2022-10-22T22:57:04.191Z,100.00
2022-10-22T22:59:31.312Z,100.00
2022-10-22T23:01:58.597Z,100.00
2022-10-22T23:04:26.449Z,100.00
2022-10-22T23:06:53.476Z,100.00
2022-10-22T23:09:21.766Z,100.00
2022-10-22T23:11:49.209Z,100.00
2022-10-22T23:14:18.767Z,100.00
2022-10-22T23:16:49.229Z,100.00
2022-10-22T23:19:18.967Z,100.00
2022-10-22T23:21:55.046Z,100.00
2022-10-22T23:24:25.177Z,100.00
2022-10-22T23:26:52.923Z,100.00
2022-10-22T23:29:26.361Z,100.00
2022-10-22T23:31:54.263Z,100.00
2022-10-22T23:34:23.706Z,100.00
2022-10-22T23:36:52.086Z,100.00
2022-10-22T23:39:21.802Z,100.00
2022-10-22T23:41:58.868Z,100.00
2022-10-22T23:44:26.060Z,100.00
2022-10-22T23:46:53.029Z,100.00
2022-10-22T23:49:20.031Z,100.00
2022-10-22T23:51:47.362Z,100.00
2022-10-22T23:54:18.499Z,100.00
2022-10-22T23:56:45.609Z,100.00
